sensor_id;sensor_type;location;lat;lon;timestamp;temperature;humidity
68177;DHT22;56478;50.982;7.032;2023-01-10T00:00:22;7.77;82.60
68177;DHT22;56478;50.982;7.032;2023-01-10T00:02:49;7.68;82.16
68177;DHT22;56478;50.982;7.032;2023-01-10T00:05:15;7.72;82.34
68177;DHT22;56478;50.982;7.032;2023-01-10T00:07:41;7.76;82.90
68177;DHT22;56478;50.982;7.032;2023-01-10T00:10:07;7.72;82.54
68177;DHT22;56478;50.982;7.032;2023-01-10T00:12:32;7.76;82.49
68177;DHT22;56478;50.982;7.032;2023-01-10T00:15:17;7.72;82.47
68177;DHT22;56478;50.982;7.032;2023-01-10T00:17:42;7.76;82.42
68177;DHT22;56478;50.982;7.032;2023-01-10T00:20:08;7.73;82.24
68177;DHT22;56478;50.982;7.032;2023-01-10T00:22:34;7.73;82.43
68177;DHT22;56478;50.982;7.032;2023-01-10T00:24:59;7.70;82.65
68177;DHT22;56478;50.982;7.032;2023-01-10T00:27:25;7.66;81.62
68177;DHT22;56478;50.982;7.032;2023-01-10T00:29:50;7.66;82.20
68177;DHT22;56478;50.982;7.032;2023-01-10T00:32:20;7.62;82.13
68177;DHT22;56478;50.982;7.032;2023-01-10T00:34:46;7.62;81.87
68177;DHT22;56478;50.982;7.032;2023-01-10T00:37:12;7.65;82.43
68177;DHT22;56478;50.982;7.032;2023-01-10T00:39:39;7.66;82.15
68177;DHT22;56478;50.982;7.032;2023-01-10T00:42:04;7.69;81.66
68177;DHT22;56478;50.982;7.032;2023-01-10T00:44:49;7.72;81.72
68177;DHT22;56478;50.982;7.032;2023-01-10T00:47:15;7.68;81.70
68177;DHT22;56478;50.982;7.032;2023-01-10T00:49:41;7.65;81.20
68177;DHT22;56478;50.982;7.032;2023-01-10T00:52:07;7.63;81.07
68177;DHT22;56478;50.982;7.032;2023-01-10T00:54:32;7.66;81.36
68177;DHT22;56478;50.982;7.032;2023-01-10T00:56:58;7.61;80.78
68177;DHT22;56478;50.982;7.032;2023-01-10T00:59:24;7.63;80.11
68177;DHT22;56478;50.982;7.032;2023-01-10T01:01:50;7.65;80.16
68177;DHT22;56478;50.982;7.032;2023-01-10T01:04:16;7.61;79.79
68177;DHT22;56478;50.982;7.032;2023-01-10T01:06:43;7.59;80.34
68177;DHT22;56478;50.982;7.032;2023-01-10T01:09:09;7.61;80.46
68177;DHT22;56478;50.982;7.032;2023-01-10T01:11:34;7.58;80.23
68177;DHT22;56478;50.982;7.032;2023-01-10T01:14:00;7.69;80.41
68177;DHT22;56478;50.982;7.032;2023-01-10T01:16:25;7.66;80.13
68177;DHT22;56478;50.982;7.032;2023-01-10T01:18:51;7.61;79.55
68177;DHT22;56478;50.982;7.032;2023-01-10T01:21:16;7.59;79.55
68177;DHT22;56478;50.982;7.032;2023-01-10T01:23:42;7.58;79.40
68177;DHT22;56478;50.982;7.032;2023-01-10T01:26:08;7.58;80.12
68177;DHT22;56478;50.982;7.032;2023-01-10T01:28:35;7.63;79.64
68177;DHT22;56478;50.982;7.032;2023-01-10T01:31:08;7.61;79.85
68177;DHT22;56478;50.982;7.032;2023-01-10T01:33:34;7.63;79.97
68177;DHT22;56478;50.982;7.032;2023-01-10T01:36:00;7.66;80.36
68177;DHT22;56478;50.982;7.032;2023-01-10T01:38:25;7.59;79.81
68177;DHT22;56478;50.982;7.032;2023-01-10T01:40:51;7.62;80.10
68177;DHT22;56478;50.982;7.032;2023-01-10T01:43:28;7.55;79.98
68177;DHT22;56478;50.982;7.032;2023-01-10T01:45:54;7.65;80.45
68177;DHT22;56478;50.982;7.032;2023-01-10T01:48:29;7.61;80.08
68177;DHT22;56478;50.982;7.032;2023-01-10T01:51:01;7.61;79.74
68177;DHT22;56478;50.982;7.032;2023-01-10T01:53:50;7.55;79.59
68177;DHT22;56478;50.982;7.032;2023-01-10T01:58:53;7.51;79.57
68177;DHT22;56478;50.982;7.032;2023-01-10T02:01:21;7.52;79.66
68177;DHT22;56478;50.982;7.032;2023-01-10T02:03:50;7.58;79.80
68177;DHT22;56478;50.982;7.032;2023-01-10T02:06:18;7.44;79.54
68177;DHT22;56478;50.982;7.032;2023-01-10T02:08:51;7.59;79.16
68177;DHT22;56478;50.982;7.032;2023-01-10T02:11:19;7.49;79.39
68177;DHT22;56478;50.982;7.032;2023-01-10T02:13:48;7.58;78.90
68177;DHT22;56478;50.982;7.032;2023-01-10T02:16:14;7.54;79.43
68177;DHT22;56478;50.982;7.032;2023-01-10T02:18:41;7.61;79.50
68177;DHT22;56478;50.982;7.032;2023-01-10T02:26:44;7.59;79.73
68177;DHT22;56478;50.982;7.032;2023-01-10T02:32:19;7.56;79.53
68177;DHT22;56478;50.982;7.032;2023-01-10T02:35:28;7.55;80.53
68177;DHT22;56478;50.982;7.032;2023-01-10T02:43:16;7.44;79.76
68177;DHT22;56478;50.982;7.032;2023-01-10T02:45:47;7.32;79.22
68177;DHT22;56478;50.982;7.032;2023-01-10T02:48:15;7.36;79.51
68177;DHT22;56478;50.982;7.032;2023-01-10T03:06:45;7.34;79.02
68177;DHT22;56478;50.982;7.032;2023-01-10T03:12:00;7.34;78.93
68177;DHT22;56478;50.982;7.032;2023-01-10T03:14:28;7.36;78.45
68177;DHT22;56478;50.982;7.032;2023-01-10T03:17:01;7.40;78.66
68177;DHT22;56478;50.982;7.032;2023-01-10T03:19:33;7.38;78.11
68177;DHT22;56478;50.982;7.032;2023-01-10T03:22:01;7.41;77.94
68177;DHT22;56478;50.982;7.032;2023-01-10T03:24:32;7.40;78.50
68177;DHT22;56478;50.982;7.032;2023-01-10T03:30:31;7.25;78.60
68177;DHT22;56478;50.982;7.032;2023-01-10T03:33:02;7.25;78.16
68177;DHT22;56478;50.982;7.032;2023-01-10T03:38:28;7.24;78.91
68177;DHT22;56478;50.982;7.032;2023-01-10T03:41:15;7.18;78.75
68177;DHT22;56478;50.982;7.032;2023-01-10T03:44:05;7.24;78.47
68177;DHT22;56478;50.982;7.032;2023-01-10T03:47:10;7.25;77.70
68177;DHT22;56478;50.982;7.032;2023-01-10T03:49:40;7.27;77.96
68177;DHT22;56478;50.982;7.032;2023-01-10T03:52:08;7.35;77.52
68177;DHT22;56478;50.982;7.032;2023-01-10T03:54:33;7.34;77.63
68177;DHT22;56478;50.982;7.032;2023-01-10T03:56:59;7.28;76.99
68177;DHT22;56478;50.982;7.032;2023-01-10T03:59:26;7.24;77.31
68177;DHT22;56478;50.982;7.032;2023-01-10T04:01:53;7.30;77.82
68177;DHT22;56478;50.982;7.032;2023-01-10T04:04:19;7.24;77.39
68177;DHT22;56478;50.982;7.032;2023-01-10T04:06:44;7.18;77.97
68177;DHT22;56478;50.982;7.032;2023-01-10T04:09:10;7.15;77.95
68177;DHT22;56478;50.982;7.032;2023-01-10T04:11:36;7.10;78.16
68177;DHT22;56478;50.982;7.032;2023-01-10T04:14:02;7.04;79.16
68177;DHT22;56478;50.982;7.032;2023-01-10T04:16:27;7.01;78.49
68177;DHT22;56478;50.982;7.032;2023-01-10T04:18:53;6.99;78.76
68177;DHT22;56478;50.982;7.032;2023-01-10T04:21:18;7.03;79.68
68177;DHT22;56478;50.982;7.032;2023-01-10T04:23:44;7.04;79.02
68177;DHT22;56478;50.982;7.032;2023-01-10T04:26:09;7.07;78.30
68177;DHT22;56478;50.982;7.032;2023-01-10T04:28:36;7.08;77.95
68177;DHT22;56478;50.982;7.032;2023-01-10T04:31:01;7.14;78.30
68177;DHT22;56478;50.982;7.032;2023-01-10T04:33:27;7.15;78.20
68177;DHT22;56478;50.982;7.032;2023-01-10T04:35:52;7.17;78.19
68177;DHT22;56478;50.982;7.032;2023-01-10T04:38:18;7.17;78.23
68177;DHT22;56478;50.982;7.032;2023-01-10T04:40:43;7.10;78.56
68177;DHT22;56478;50.982;7.032;2023-01-10T04:43:10;7.06;78.15
68177;DHT22;56478;50.982;7.032;2023-01-10T04:45:36;7.10;78.25
68177;DHT22;56478;50.982;7.032;2023-01-10T04:48:02;7.13;78.29
68177;DHT22;56478;50.982;7.032;2023-01-10T04:50:28;7.11;78.39
68177;DHT22;56478;50.982;7.032;2023-01-10T04:52:53;7.14;78.44
68177;DHT22;56478;50.982;7.032;2023-01-10T04:55:19;7.18;77.87
68177;DHT22;56478;50.982;7.032;2023-01-10T04:57:44;7.17;77.76
68177;DHT22;56478;50.982;7.032;2023-01-10T05:00:11;7.20;78.30
68177;DHT22;56478;50.982;7.032;2023-01-10T05:02:37;7.23;78.13
68177;DHT22;56478;50.982;7.032;2023-01-10T05:05:12;7.18;77.65
68177;DHT22;56478;50.982;7.032;2023-01-10T05:07:38;7.13;77.85
68177;DHT22;56478;50.982;7.032;2023-01-10T05:10:05;7.20;77.98
68177;DHT22;56478;50.982;7.032;2023-01-10T05:12:32;7.20;77.87
68177;DHT22;56478;50.982;7.032;2023-01-10T05:14:58;7.21;78.03
68177;DHT22;56478;50.982;7.032;2023-01-10T05:17:24;7.23;77.60
68177;DHT22;56478;50.982;7.032;2023-01-10T05:19:49;7.25;77.57
68177;DHT22;56478;50.982;7.032;2023-01-10T05:22:15;7.30;77.27
68177;DHT22;56478;50.982;7.032;2023-01-10T05:24:40;7.23;77.29
68177;DHT22;56478;50.982;7.032;2023-01-10T05:27:06;7.20;77.52
68177;DHT22;56478;50.982;7.032;2023-01-10T05:29:32;7.21;77.76
68177;DHT22;56478;50.982;7.032;2023-01-10T05:31:58;7.21;77.70
68177;DHT22;56478;50.982;7.032;2023-01-10T05:34:24;7.23;77.64
68177;DHT22;56478;50.982;7.032;2023-01-10T05:36:49;7.20;77.48
68177;DHT22;56478;50.982;7.032;2023-01-10T05:39:15;7.21;77.77
68177;DHT22;56478;50.982;7.032;2023-01-10T05:41:41;7.21;77.41
68177;DHT22;56478;50.982;7.032;2023-01-10T05:44:06;7.20;77.74
68177;DHT22;56478;50.982;7.032;2023-01-10T05:46:32;7.20;77.55
68177;DHT22;56478;50.982;7.032;2023-01-10T05:48:58;7.17;77.28
68177;DHT22;56478;50.982;7.032;2023-01-10T05:51:24;7.17;77.78
68177;DHT22;56478;50.982;7.032;2023-01-10T05:53:50;7.14;77.87
68177;DHT22;56478;50.982;7.032;2023-01-10T05:56:15;7.13;77.80
68177;DHT22;56478;50.982;7.032;2023-01-10T05:58:41;7.13;77.97
68177;DHT22;56478;50.982;7.032;2023-01-10T06:01:06;7.08;77.63
68177;DHT22;56478;50.982;7.032;2023-01-10T06:03:32;7.08;77.83
68177;DHT22;56478;50.982;7.032;2023-01-10T06:05:58;7.01;77.84
68177;DHT22;56478;50.982;7.032;2023-01-10T06:08:23;6.97;77.98
68177;DHT22;56478;50.982;7.032;2023-01-10T06:10:49;6.95;78.36
68177;DHT22;56478;50.982;7.032;2023-01-10T06:13:15;6.95;78.09
68177;DHT22;56478;50.982;7.032;2023-01-10T06:15:42;6.92;78.11
68177;DHT22;56478;50.982;7.032;2023-01-10T06:18:07;6.96;77.85
68177;DHT22;56478;50.982;7.032;2023-01-10T06:20:36;6.93;78.13
68177;DHT22;56478;50.982;7.032;2023-01-10T06:23:01;6.97;77.98
68177;DHT22;56478;50.982;7.032;2023-01-10T06:25:30;7.04;78.57
68177;DHT22;56478;50.982;7.032;2023-01-10T06:27:55;7.04;77.57
68177;DHT22;56478;50.982;7.032;2023-01-10T06:30:21;7.10;78.45
68177;DHT22;56478;50.982;7.032;2023-01-10T06:32:47;7.07;77.64
68177;DHT22;56478;50.982;7.032;2023-01-10T06:35:12;7.04;77.83
68177;DHT22;56478;50.982;7.032;2023-01-10T06:37:38;7.06;77.24
68177;DHT22;56478;50.982;7.032;2023-01-10T06:40:04;7.11;77.63
68177;DHT22;56478;50.982;7.032;2023-01-10T06:42:30;7.08;77.23
68177;DHT22;56478;50.982;7.032;2023-01-10T06:44:55;7.10;77.13
68177;DHT22;56478;50.982;7.032;2023-01-10T06:47:21;7.11;77.45
68177;DHT22;56478;50.982;7.032;2023-01-10T06:49:47;7.15;77.56
68177;DHT22;56478;50.982;7.032;2023-01-10T06:52:12;7.20;76.95
68177;DHT22;56478;50.982;7.032;2023-01-10T06:54:37;7.20;77.12
68177;DHT22;56478;50.982;7.032;2023-01-10T06:57:06;7.23;76.85
68177;DHT22;56478;50.982;7.032;2023-01-10T06:59:32;7.24;77.23
68177;DHT22;56478;50.982;7.032;2023-01-10T07:01:58;7.30;77.44
68177;DHT22;56478;50.982;7.032;2023-01-10T07:04:23;7.36;76.38
68177;DHT22;56478;50.982;7.032;2023-01-10T07:06:51;7.32;76.49
68177;DHT22;56478;50.982;7.032;2023-01-10T07:09:16;7.24;76.73
68177;DHT22;56478;50.982;7.032;2023-01-10T07:11:42;7.21;76.95
68177;DHT22;56478;50.982;7.032;2023-01-10T07:14:07;7.21;77.11
68177;DHT22;56478;50.982;7.032;2023-01-10T07:16:43;7.23;77.57
68177;DHT22;56478;50.982;7.032;2023-01-10T07:19:08;7.17;77.42
68177;DHT22;56478;50.982;7.032;2023-01-10T07:21:34;7.18;77.46
68177;DHT22;56478;50.982;7.032;2023-01-10T07:23:59;7.17;76.62
68177;DHT22;56478;50.982;7.032;2023-01-10T07:26:25;7.23;76.55
68177;DHT22;56478;50.982;7.032;2023-01-10T07:28:50;7.24;76.64
68177;DHT22;56478;50.982;7.032;2023-01-10T07:31:18;7.20;76.89
68177;DHT22;56478;50.982;7.032;2023-01-10T07:33:43;7.23;77.08
68177;DHT22;56478;50.982;7.032;2023-01-10T07:36:09;7.20;77.00
68177;DHT22;56478;50.982;7.032;2023-01-10T07:38:36;7.23;76.71
68177;DHT22;56478;50.982;7.032;2023-01-10T07:41:01;7.23;77.09
68177;DHT22;56478;50.982;7.032;2023-01-10T07:43:28;7.31;76.82
68177;DHT22;56478;50.982;7.032;2023-01-10T07:45:53;7.38;76.28
68177;DHT22;56478;50.982;7.032;2023-01-10T07:48:22;7.36;76.56
68177;DHT22;56478;50.982;7.032;2023-01-10T07:50:47;7.36;76.55
68177;DHT22;56478;50.982;7.032;2023-01-10T07:53:12;7.47;76.46
68177;DHT22;56478;50.982;7.032;2023-01-10T07:55:38;7.41;76.14
68177;DHT22;56478;50.982;7.032;2023-01-10T07:58:05;7.41;76.77
68177;DHT22;56478;50.982;7.032;2023-01-10T08:00:32;7.48;76.45
68177;DHT22;56478;50.982;7.032;2023-01-10T08:02:58;7.49;76.33
68177;DHT22;56478;50.982;7.032;2023-01-10T08:05:23;7.54;76.11
68177;DHT22;56478;50.982;7.032;2023-01-10T08:07:49;7.45;76.00
68177;DHT22;56478;50.982;7.032;2023-01-10T08:10:15;7.61;75.15
68177;DHT22;56478;50.982;7.032;2023-01-10T08:12:40;7.65;75.00
68177;DHT22;56478;50.982;7.032;2023-01-10T08:15:06;7.62;75.38
68177;DHT22;56478;50.982;7.032;2023-01-10T08:17:35;7.55;75.65
68177;DHT22;56478;50.982;7.032;2023-01-10T08:20:01;7.49;76.35
68177;DHT22;56478;50.982;7.032;2023-01-10T08:22:26;7.52;76.78
68177;DHT22;56478;50.982;7.032;2023-01-10T08:24:52;7.48;75.97
68177;DHT22;56478;50.982;7.032;2023-01-10T08:27:17;7.58;75.90
68177;DHT22;56478;50.982;7.032;2023-01-10T08:29:43;7.55;76.24
68177;DHT22;56478;50.982;7.032;2023-01-10T08:32:08;7.56;75.96
68177;DHT22;56478;50.982;7.032;2023-01-10T08:34:34;7.72;75.26
68177;DHT22;56478;50.982;7.032;2023-01-10T08:36:59;7.80;74.73
68177;DHT22;56478;50.982;7.032;2023-01-10T08:39:27;7.80;74.58
68177;DHT22;56478;50.982;7.032;2023-01-10T08:41:54;7.73;74.62
68177;DHT22;56478;50.982;7.032;2023-01-10T08:44:20;7.85;74.33
68177;DHT22;56478;50.982;7.032;2023-01-10T08:46:46;8.17;74.40
68177;DHT22;56478;50.982;7.032;2023-01-10T08:49:12;8.41;73.12
68177;DHT22;56478;50.982;7.032;2023-01-10T08:51:38;8.32;72.95
68177;DHT22;56478;50.982;7.032;2023-01-10T08:54:03;8.52;72.99
68177;DHT22;56478;50.982;7.032;2023-01-10T08:56:29;8.67;72.15
68177;DHT22;56478;50.982;7.032;2023-01-10T08:58:54;8.77;71.83
68177;DHT22;56478;50.982;7.032;2023-01-10T09:01:20;8.67;71.45
68177;DHT22;56478;50.982;7.032;2023-01-10T09:03:45;8.96;70.45
68177;DHT22;56478;50.982;7.032;2023-01-10T09:06:11;8.69;71.85
68177;DHT22;56478;50.982;7.032;2023-01-10T09:08:36;8.79;71.28
68177;DHT22;56478;50.982;7.032;2023-01-10T09:11:03;8.85;71.20
68177;DHT22;56478;50.982;7.032;2023-01-10T09:13:28;8.81;71.42
68177;DHT22;56478;50.982;7.032;2023-01-10T09:15:54;8.97;71.16
68177;DHT22;56478;50.982;7.032;2023-01-10T09:18:21;9.24;69.74
68177;DHT22;56478;50.982;7.032;2023-01-10T09:20:46;9.26;69.41
68177;DHT22;56478;50.982;7.032;2023-01-10T09:23:15;9.91;67.82
68177;DHT22;56478;50.982;7.032;2023-01-10T09:25:42;10.15;66.29
68177;DHT22;56478;50.982;7.032;2023-01-10T09:28:08;10.29;66.36
68177;DHT22;56478;50.982;7.032;2023-01-10T09:30:43;9.90;67.55
68177;DHT22;56478;50.982;7.032;2023-01-10T09:33:10;10.06;67.27
68177;DHT22;56478;50.982;7.032;2023-01-10T09:35:37;10.60;65.14
68177;DHT22;56478;50.982;7.032;2023-01-10T09:38:04;10.97;63.44
68177;DHT22;56478;50.982;7.032;2023-01-10T09:46:13;12.42;59.57
68177;DHT22;56478;50.982;7.032;2023-01-10T09:49:14;12.29;59.11
68177;DHT22;56478;50.982;7.032;2023-01-10T09:51:43;12.94;58.28
68177;DHT22;56478;50.982;7.032;2023-01-10T09:54:16;12.05;58.37
68177;DHT22;56478;50.982;7.032;2023-01-10T09:56:43;12.28;58.94
68177;DHT22;56478;50.982;7.032;2023-01-10T09:59:19;12.01;60.26
68177;DHT22;56478;50.982;7.032;2023-01-10T10:01:47;11.56;61.29
68177;DHT22;56478;50.982;7.032;2023-01-10T10:04:24;11.22;61.74
68177;DHT22;56478;50.982;7.032;2023-01-10T10:06:52;11.49;60.27
68177;DHT22;56478;50.982;7.032;2023-01-10T10:09:25;11.85;59.08
68177;DHT22;56478;50.982;7.032;2023-01-10T10:12:00;12.34;58.17
68177;DHT22;56478;50.982;7.032;2023-01-10T10:17:11;12.40;57.55
68177;DHT22;56478;50.982;7.032;2023-01-10T10:22:44;12.99;56.44
68177;DHT22;56478;50.982;7.032;2023-01-10T10:25:22;12.84;56.41
68177;DHT22;56478;50.982;7.032;2023-01-10T10:35:42;12.63;56.16
68177;DHT22;56478;50.982;7.032;2023-01-10T10:38:16;12.12;58.59
68177;DHT22;56478;50.982;7.032;2023-01-10T10:40:43;12.15;59.11
68177;DHT22;56478;50.982;7.032;2023-01-10T10:43:19;12.15;58.69
68177;DHT22;56478;50.982;7.032;2023-01-10T10:46:01;12.01;58.44
68177;DHT22;56478;50.982;7.032;2023-01-10T10:48:31;11.77;59.28
68177;DHT22;56478;50.982;7.032;2023-01-10T10:51:20;11.52;60.98
68177;DHT22;56478;50.982;7.032;2023-01-10T10:53:47;11.49;61.06
68177;DHT22;56478;50.982;7.032;2023-01-10T10:56:17;11.70;60.60
68177;DHT22;56478;50.982;7.032;2023-01-10T10:58:45;11.85;59.03
68177;DHT22;56478;50.982;7.032;2023-01-10T11:01:13;11.43;60.57
68177;DHT22;56478;50.982;7.032;2023-01-10T11:03:58;11.59;59.97
68177;DHT22;56478;50.982;7.032;2023-01-10T11:06:26;11.74;59.68
68177;DHT22;56478;50.982;7.032;2023-01-10T11:08:55;11.88;60.04
68177;DHT22;56478;50.982;7.032;2023-01-10T11:11:26;11.49;61.06
68177;DHT22;56478;50.982;7.032;2023-01-10T11:13:57;11.26;60.76
68177;DHT22;56478;50.982;7.032;2023-01-10T11:16:34;11.23;61.09
68177;DHT22;56478;50.982;7.032;2023-01-10T11:19:21;11.25;61.11
68177;DHT22;56478;50.982;7.032;2023-01-10T11:21:58;11.33;61.88
68177;DHT22;56478;50.982;7.032;2023-01-10T11:24:33;11.02;59.86
68177;DHT22;56478;50.982;7.032;2023-01-10T11:27:13;11.08;61.53
68177;DHT22;56478;50.982;7.032;2023-01-10T11:29:45;11.01;61.34
68177;DHT22;56478;50.982;7.032;2023-01-10T11:32:16;10.91;60.86
68177;DHT22;56478;50.982;7.032;2023-01-10T11:34:49;10.98;60.79
68177;DHT22;56478;50.982;7.032;2023-01-10T11:44:26;10.77;61.32
68177;DHT22;56478;50.982;7.032;2023-01-10T11:46:57;10.60;60.62
68177;DHT22;56478;50.982;7.032;2023-01-10T11:49:36;10.49;60.94
68177;DHT22;56478;50.982;7.032;2023-01-10T12:17:28;10.55;60.82
68177;DHT22;56478;50.982;7.032;2023-01-10T12:19:59;10.78;60.15
68177;DHT22;56478;50.982;7.032;2023-01-10T12:22:34;10.76;60.82
68177;DHT22;56478;50.982;7.032;2023-01-10T12:25:23;10.74;60.13
68177;DHT22;56478;50.982;7.032;2023-01-10T12:27:53;10.56;61.08
68177;DHT22;56478;50.982;7.032;2023-01-10T12:32:56;10.73;61.00
68177;DHT22;56478;50.982;7.032;2023-01-10T12:35:53;10.60;61.00
68177;DHT22;56478;50.982;7.032;2023-01-10T12:45:30;9.99;63.03
68177;DHT22;56478;50.982;7.032;2023-01-10T12:51:35;10.12;63.87
68177;DHT22;56478;50.982;7.032;2023-01-10T12:54:15;10.19;62.15
68177;DHT22;56478;50.982;7.032;2023-01-10T13:07:26;10.09;62.14
68177;DHT22;56478;50.982;7.032;2023-01-10T13:09:54;9.93;63.41
68177;DHT22;56478;50.982;7.032;2023-01-10T13:12:27;10.12;62.68
68177;DHT22;56478;50.982;7.032;2023-01-10T13:17:42;10.18;62.53
68177;DHT22;56478;50.982;7.032;2023-01-10T13:22:48;10.11;63.71
68177;DHT22;56478;50.982;7.032;2023-01-10T13:25:30;10.15;62.82
68177;DHT22;56478;50.982;7.032;2023-01-10T13:27:57;10.06;62.40
68177;DHT22;56478;50.982;7.032;2023-01-10T13:30:36;9.97;63.33
68177;DHT22;56478;50.982;7.032;2023-01-10T13:33:21;9.87;63.11
68177;DHT22;56478;50.982;7.032;2023-01-10T13:35:47;9.77;64.07
68177;DHT22;56478;50.982;7.032;2023-01-10T13:38:19;9.86;62.97
68177;DHT22;56478;50.982;7.032;2023-01-10T13:41:13;9.76;62.62
68177;DHT22;56478;50.982;7.032;2023-01-10T13:46:39;9.53;63.24
68177;DHT22;56478;50.982;7.032;2023-01-10T13:51:38;9.45;64.69
68177;DHT22;56478;50.982;7.032;2023-01-10T13:54:25;9.59;63.55
68177;DHT22;56478;50.982;7.032;2023-01-10T13:56:53;9.53;64.42
68177;DHT22;56478;50.982;7.032;2023-01-10T14:02:24;9.39;63.32
68177;DHT22;56478;50.982;7.032;2023-01-10T14:05:02;9.26;63.90
68177;DHT22;56478;50.982;7.032;2023-01-10T14:07:47;9.26;63.60
68177;DHT22;56478;50.982;7.032;2023-01-10T14:10:22;9.19;64.55
68177;DHT22;56478;50.982;7.032;2023-01-10T14:13:01;9.18;63.72
68177;DHT22;56478;50.982;7.032;2023-01-10T14:15:41;9.21;63.50
68177;DHT22;56478;50.982;7.032;2023-01-10T14:18:20;9.19;63.97
68177;DHT22;56478;50.982;7.032;2023-01-10T14:21:07;9.15;64.02
68177;DHT22;56478;50.982;7.032;2023-01-10T14:23:39;9.15;64.36
68177;DHT22;56478;50.982;7.032;2023-01-10T14:26:06;9.04;65.07
68177;DHT22;56478;50.982;7.032;2023-01-10T14:28:34;9.11;65.28
68177;DHT22;56478;50.982;7.032;2023-01-10T14:31:05;9.10;65.24
68177;DHT22;56478;50.982;7.032;2023-01-10T14:33:32;9.07;65.09
68177;DHT22;56478;50.982;7.032;2023-01-10T14:36:07;8.94;65.07
68177;DHT22;56478;50.982;7.032;2023-01-10T14:38:34;8.92;65.86
68177;DHT22;56478;50.982;7.032;2023-01-10T14:43:43;8.73;66.13
68177;DHT22;56478;50.982;7.032;2023-01-10T14:46:23;8.74;66.02
68177;DHT22;56478;50.982;7.032;2023-01-10T14:48:51;8.76;65.87
68177;DHT22;56478;50.982;7.032;2023-01-10T14:51:31;8.62;66.30
68177;DHT22;56478;50.982;7.032;2023-01-10T14:54:10;8.63;66.60
68177;DHT22;56478;50.982;7.032;2023-01-10T14:56:41;8.60;66.64
68177;DHT22;56478;50.982;7.032;2023-01-10T15:04:53;8.62;66.77
68177;DHT22;56478;50.982;7.032;2023-01-10T15:07:20;8.60;66.87
68177;DHT22;56478;50.982;7.032;2023-01-10T15:09:50;8.56;67.33
68177;DHT22;56478;50.982;7.032;2023-01-10T15:12:16;8.59;67.03
68177;DHT22;56478;50.982;7.032;2023-01-10T15:14:44;8.55;67.56
68177;DHT22;56478;50.982;7.032;2023-01-10T15:17:16;8.52;67.44
68177;DHT22;56478;50.982;7.032;2023-01-10T15:19:45;8.55;67.30
68177;DHT22;56478;50.982;7.032;2023-01-10T15:24:43;8.55;67.58
68177;DHT22;56478;50.982;7.032;2023-01-10T15:27:21;8.46;67.87
68177;DHT22;56478;50.982;7.032;2023-01-10T15:29:46;8.49;67.92
68177;DHT22;56478;50.982;7.032;2023-01-10T15:32:41;8.48;68.20
68177;DHT22;56478;50.982;7.032;2023-01-10T15:35:10;8.49;68.16
68177;DHT22;56478;50.982;7.032;2023-01-10T15:37:37;8.45;68.79
68177;DHT22;56478;50.982;7.032;2023-01-10T15:40:18;8.48;68.57
68177;DHT22;56478;50.982;7.032;2023-01-10T15:42:44;8.52;68.34
68177;DHT22;56478;50.982;7.032;2023-01-10T15:45:27;8.53;68.84
68177;DHT22;56478;50.982;7.032;2023-01-10T15:47:57;8.49;68.75
68177;DHT22;56478;50.982;7.032;2023-01-10T15:50:37;8.53;68.77
68177;DHT22;56478;50.982;7.032;2023-01-10T15:53:08;8.55;68.64
68177;DHT22;56478;50.982;7.032;2023-01-10T15:55:51;8.53;68.81
68177;DHT22;56478;50.982;7.032;2023-01-10T15:58:29;8.46;70.51
68177;DHT22;56478;50.982;7.032;2023-01-10T16:00:56;8.49;70.55
68177;DHT22;56478;50.982;7.032;2023-01-10T16:03:26;8.50;70.86
68177;DHT22;56478;50.982;7.032;2023-01-10T16:05:54;8.48;72.02
68177;DHT22;56478;50.982;7.032;2023-01-10T16:08:22;8.31;73.24
68177;DHT22;56478;50.982;7.032;2023-01-10T16:10:54;8.32;73.76
68177;DHT22;56478;50.982;7.032;2023-01-10T16:13:21;8.17;74.41
68177;DHT22;56478;50.982;7.032;2023-01-10T16:15:59;8.21;75.54
68177;DHT22;56478;50.982;7.032;2023-01-10T16:18:26;8.08;76.29
68177;DHT22;56478;50.982;7.032;2023-01-10T16:20:56;8.03;78.50
68177;DHT22;56478;50.982;7.032;2023-01-10T16:23:26;8.00;77.25
68177;DHT22;56478;50.982;7.032;2023-01-10T16:25:57;7.87;79.45
68177;DHT22;56478;50.982;7.032;2023-01-10T16:28:22;7.68;80.88
68177;DHT22;56478;50.982;7.032;2023-01-10T16:30:48;7.52;81.92
68177;DHT22;56478;50.982;7.032;2023-01-10T16:33:24;7.40;81.66
68177;DHT22;56478;50.982;7.032;2023-01-10T16:35:56;7.38;82.69
68177;DHT22;56478;50.982;7.032;2023-01-10T16:38:23;7.32;83.11
68177;DHT22;56478;50.982;7.032;2023-01-10T16:40:56;7.34;83.22
68177;DHT22;56478;50.982;7.032;2023-01-10T16:43:22;7.25;83.95
68177;DHT22;56478;50.982;7.032;2023-01-10T16:45:55;7.23;83.45
68177;DHT22;56478;50.982;7.032;2023-01-10T16:48:29;7.15;84.11
68177;DHT22;56478;50.982;7.032;2023-01-10T16:51:14;7.08;84.89
68177;DHT22;56478;50.982;7.032;2023-01-10T16:53:40;7.18;84.60
68177;DHT22;56478;50.982;7.032;2023-01-10T16:56:07;7.13;85.50
68177;DHT22;56478;50.982;7.032;2023-01-10T16:58:34;7.10;85.04
68177;DHT22;56478;50.982;7.032;2023-01-10T17:01:00;7.01;85.78
68177;DHT22;56478;50.982;7.032;2023-01-10T17:03:26;7.01;86.63
68177;DHT22;56478;50.982;7.032;2023-01-10T17:05:52;7.07;86.80
68177;DHT22;56478;50.982;7.032;2023-01-10T17:08:20;6.97;87.20
68177;DHT22;56478;50.982;7.032;2023-01-10T17:10:49;6.99;87.76
68177;DHT22;56478;50.982;7.032;2023-01-10T17:13:22;6.96;87.88
68177;DHT22;56478;50.982;7.032;2023-01-10T17:15:48;6.97;88.27
68177;DHT22;56478;50.982;7.032;2023-01-10T17:18:14;6.96;88.25
68177;DHT22;56478;50.982;7.032;2023-01-10T17:20:39;6.90;88.71
68177;DHT22;56478;50.982;7.032;2023-01-10T17:23:05;6.90;88.82
68177;DHT22;56478;50.982;7.032;2023-01-10T17:25:30;6.80;89.28
68177;DHT22;56478;50.982;7.032;2023-01-10T17:27:56;6.82;89.08
68177;DHT22;56478;50.982;7.032;2023-01-10T17:30:22;6.79;89.07
68177;DHT22;56478;50.982;7.032;2023-01-10T17:32:47;6.75;89.60
68177;DHT22;56478;50.982;7.032;2023-01-10T17:35:13;6.80;89.22
68177;DHT22;56478;50.982;7.032;2023-01-10T17:37:38;6.78;89.58
68177;DHT22;56478;50.982;7.032;2023-01-10T17:40:05;6.72;89.48
68177;DHT22;56478;50.982;7.032;2023-01-10T17:42:30;6.69;89.72
68177;DHT22;56478;50.982;7.032;2023-01-10T17:44:56;6.76;90.13
68177;DHT22;56478;50.982;7.032;2023-01-10T17:47:21;6.76;90.22
68177;DHT22;56478;50.982;7.032;2023-01-10T17:49:47;6.69;90.13
68177;DHT22;56478;50.982;7.032;2023-01-10T17:52:12;6.61;90.18
68177;DHT22;56478;50.982;7.032;2023-01-10T17:54:38;6.64;90.69
68177;DHT22;56478;50.982;7.032;2023-01-10T17:57:04;6.64;90.57
68177;DHT22;56478;50.982;7.032;2023-01-10T17:59:29;6.61;90.98
68177;DHT22;56478;50.982;7.032;2023-01-10T18:01:55;6.54;91.48
68177;DHT22;56478;50.982;7.032;2023-01-10T18:04:20;6.52;92.00
68177;DHT22;56478;50.982;7.032;2023-01-10T18:06:46;6.46;92.20
68177;DHT22;56478;50.982;7.032;2023-01-10T18:09:22;6.51;92.64
68177;DHT22;56478;50.982;7.032;2023-01-10T18:12:00;6.46;92.80
68177;DHT22;56478;50.982;7.032;2023-01-10T18:14:30;6.46;92.55
68177;DHT22;56478;50.982;7.032;2023-01-10T18:17:27;6.42;92.48